Time;durP1;ratioP1;P1;durP2;ratioP2;P2;SDS_P1;SDS_P2;PMS_P1;PMS_P2;Temp;Humidity;BMP_temperature;BMP_pressure;BME280_temperature;BME280_humidity;BME280_pressure;Samples;Min_cycle;Max_cycle;Signal;HPM_P1;HPM_P2
2022/05/06 00:00:10;;;;;;;0.10;0.10;;;;;;;17.46;57.12;101813.88;7362076;19;20006;-60
2022/05/06 00:02:35;;;;;;;0.05;0.05;;;;;;;17.38;57.15;101807.06;7359410;19;20831;-59
2022/05/06 00:05:01;;;;;;;0.00;0.00;;;;;;;17.43;57.29;101819.25;7349309;19;20002;-59
2022/05/06 00:07:27;;;;;;;0.00;0.00;;;;;;;17.37;57.01;101820.34;7358539;19;20019;-60
2022/05/06 00:09:53;;;;;;;0.00;0.00;;;;;;;17.34;57.68;101818.66;7361658;19;20010;-60
2022/05/06 00:12:19;;;;;;;0.05;0.05;;;;;;;17.30;57.72;101819.69;7360963;19;20010;-59
2022/05/06 00:14:45;;;;;;;0.10;0.10;;;;;;;17.21;57.70;101805.91;7360063;19;20011;-60
2022/05/06 00:17:11;;;;;;;0.10;0.10;;;;;;;17.26;57.36;101812.78;7358481;19;20074;-60
2022/05/06 00:19:36;;;;;;;0.00;0.00;;;;;;;17.24;57.82;101808.47;7361555;19;20073;-60
2022/05/06 00:22:02;;;;;;;0.03;0.03;;;;;;;17.15;58.04;101799.06;7361436;19;20760;-60
2022/05/06 00:24:31;;;;;;;0.03;0.03;;;;;;;17.20;57.72;101805.06;7360039;19;20827;-59
2022/05/06 00:26:57;;;;;;;0.10;0.10;;;;;;;17.19;57.96;101805.13;7359205;19;20086;-59
2022/05/06 00:29:23;;;;;;;0.00;0.00;;;;;;;17.19;58.18;101805.13;7358739;19;20019;-58
2022/05/06 00:31:48;;;;;;;0.00;0.00;;;;;;;17.10;57.86;101790.44;7360426;19;20014;-60
2022/05/06 00:34:14;;;;;;;0.10;0.10;;;;;;;17.14;58.23;101797.34;7357946;19;20026;-60
2022/05/06 00:36:39;;;;;;;0.00;0.00;;;;;;;17.12;58.31;101805.28;7360326;19;20018;-60
2022/05/06 00:39:05;;;;;;;0.00;0.00;;;;;;;17.11;58.57;101797.44;7359181;19;20014;-60
2022/05/06 00:41:34;;;;;;;0.00;0.00;;;;;;;17.13;58.29;101800.88;7360095;19;20098;-59
2022/05/06 00:44:00;;;;;;;0.00;0.00;;;;;;;16.99;58.11;101776.72;7359088;19;20014;-59
2022/05/06 00:46:26;;;;;;;0.00;0.00;;;;;;;17.07;58.51;101790.53;7358377;19;20019;-59
2022/05/06 00:48:52;;;;;;;0.10;0.10;;;;;;;17.07;58.12;101795.78;7357731;19;20367;-60
2022/05/06 00:51:18;;;;;;;0.00;0.00;;;;;;;17.05;58.60;101790.56;7359763;19;20030;-60
2022/05/06 00:53:44;;;;;;;0.00;0.00;;;;;;;17.04;58.41;101795.91;7359299;19;20093;-60
2022/05/06 00:56:15;;;;;;;0.00;0.00;;;;;;;17.01;58.19;101791.59;7360931;19;20026;-59
2022/05/06 00:58:45;;;;;;;0.00;0.00;;;;;;;16.98;58.70;101791.69;7357955;19;20007;-59
2022/05/06 01:01:11;;;;;;;0.03;0.03;;;;;;;16.98;58.44;101785.53;7359410;19;20658;-60
2022/05/06 01:03:36;;;;;;;0.00;0.00;;;;;;;16.92;58.48;101781.31;7356904;19;20010;-59
2022/05/06 01:06:10;;;;;;;0.10;0.10;;;;;;;16.94;58.32;101789.22;7359157;19;20011;-60
2022/05/06 01:08:37;;;;;;;0.10;0.10;;;;;;;16.90;58.80;101792.84;7357476;19;20692;-60
2022/05/06 01:11:02;;;;;;;0.00;0.00;;;;;;;16.88;58.62;101790.25;7357224;19;20018;-60
2022/05/06 01:13:28;;;;;;;0.00;0.00;;;;;;;16.84;58.56;101784.22;7360238;19;20074;-60
2022/05/06 01:15:57;;;;;;;0.00;0.00;;;;;;;16.49;58.64;101731.66;7357807;19;20026;-60
2022/05/06 01:18:22;;;;;;;0.00;0.00;;;;;;;16.79;59.15;101786.13;7358797;19;20585;-60
2022/05/06 01:20:55;;;;;;;0.10;0.10;;;;;;;16.79;58.38;101785.28;7359499;19;20002;-59
2022/05/06 01:23:23;;;;;;;0.10;0.10;;;;;;;16.76;59.26;101782.72;7358201;19;20013;-59
2022/05/06 01:25:48;;;;;;;0.08;0.08;;;;;;;16.74;59.36;101793.31;7359300;19;20014;-60
2022/05/06 01:28:14;;;;;;;0.08;0.08;;;;;;;16.74;59.38;101787.19;7358501;19;20394;-59
2022/05/06 01:30:39;;;;;;;0.00;0.00;;;;;;;16.72;59.01;101795.13;7357068;19;20010;-60
2022/05/06 01:33:07;;;;;;;0.00;0.00;;;;;;;16.71;59.38;101789.88;7358518;19;20014;-60
2022/05/06 01:35:52;;;;;;;0.00;0.00;;;;;;;16.73;57.95;101785.47;7357554;19;20010;-60
2022/05/06 01:38:31;;;;;;;0.00;0.00;;;;;;;16.70;58.38;101786.38;7356761;19;20789;-60
2022/05/06 01:41:00;;;;;;;0.00;0.00;;;;;;;16.57;59.08;101769.19;7358369;19;20006;-60
2022/05/06 01:43:31;;;;;;;0.10;0.10;;;;;;;16.65;59.72;101779.53;7353382;19;20014;-59
2022/05/06 01:45:56;;;;;;;0.00;0.00;;;;;;;16.63;59.75;101778.72;7357494;19;20014;-60
2022/05/06 01:48:22;;;;;;;0.00;0.00;;;;;;;16.61;59.68;101784.03;7357058;19;20787;-61
2022/05/06 01:50:49;;;;;;;0.10;0.10;;;;;;;16.60;59.41;101774.38;7359046;19;20077;-60
2022/05/06 01:53:16;;;;;;;0.00;0.00;;;;;;;16.59;59.80;101778.81;7357252;19;20013;-60
2022/05/06 01:55:44;;;;;;;;;;;;;;;16.63;57.59;101784.00;7359049;19;20002;-60
2022/05/06 01:58:10;;;;;;;0.00;0.00;;;;;;;16.57;59.70;101769.19;7355827;19;19929;-60
2022/05/06 02:00:36;;;;;;;0.10;0.10;;;;;;;16.59;59.20;101772.66;7358549;19;20011;-60
2022/05/06 02:03:02;;;;;;;0.00;0.00;;;;;;;16.58;59.44;101770.94;7357453;19;20003;-60
2022/05/06 02:05:27;;;;;;;0.00;0.00;;;;;;;16.56;59.47;101759.56;7358916;19;20014;-59
2022/05/06 02:07:53;;;;;;;0.00;0.00;;;;;;;16.54;59.76;101758.75;7358649;19;20031;-60
2022/05/06 02:10:21;;;;;;;0.00;0.00;;;;;;;16.53;59.79;101762.31;7357927;19;20014;-60
2022/05/06 02:12:47;;;;;;;0.00;0.00;;;;;;;16.50;59.50;101752.69;7355621;19;20098;-59
2022/05/06 02:15:16;;;;;;;0.00;0.00;;;;;;;16.47;59.86;101752.78;7359666;19;20928;-59
2022/05/06 02:17:42;;;;;;;0.03;0.03;;;;;;;16.33;59.73;101724.22;7358457;19;20009;-59
2022/05/06 02:20:09;;;;;;;0.00;0.00;;;;;;;16.46;59.65;101744.94;7357994;19;21211;-60
2022/05/06 02:22:36;;;;;;;0.00;0.00;;;;;;;16.45;59.23;101751.13;7358114;19;20013;-59
2022/05/06 02:25:09;;;;;;;0.10;0.10;;;;;;;16.35;59.59;101732.94;7358016;19;20026;-60
2022/05/06 02:27:35;;;;;;;0.00;0.00;;;;;;;16.42;59.62;101748.56;7354089;19;20015;-59
2022/05/06 02:35:28;;;;;;;0.00;0.00;;;;;;;16.34;60.15;101741.75;7356294;19;20559;-59
2022/05/06 02:37:55;;;;;;;0.00;0.00;;;;;;;16.30;60.09;101734.84;7357881;19;19999;-60
2022/05/06 02:40:20;;;;;;;0.03;0.03;;;;;;;16.29;60.03;101743.69;7356012;19;20014;-60
2022/05/06 02:42:46;;;;;;;0.00;0.00;;;;;;;16.25;60.18;101744.66;7360021;19;20028;-59
2022/05/06 02:45:11;;;;;;;0.00;0.00;;;;;;;16.25;60.46;101749.09;7364493;19;20019;-59
2022/05/06 02:47:37;;;;;;;0.00;0.00;;;;;;;16.24;60.32;101744.72;7363696;19;20006;-60
2022/05/06 02:50:03;;;;;;;0.10;0.10;;;;;;;16.20;60.21;101754.47;7359865;19;20030;-59
2022/05/06 02:52:29;;;;;;;0.10;0.10;;;;;;;16.19;60.06;101752.75;7363694;19;20010;-59
2022/05/06 02:54:54;;;;;;;0.00;0.00;;;;;;;16.17;60.15;101753.69;7363868;19;20781;-60
2022/05/06 02:57:19;;;;;;;0.00;0.00;;;;;;;16.15;60.57;101755.53;7365023;19;20014;-59
2022/05/06 02:59:45;;;;;;;0.00;0.00;;;;;;;16.11;60.65;101749.47;7359512;19;20374;-60
2022/05/06 03:02:10;;;;;;;0.10;0.10;;;;;;;16.11;61.01;101753.88;7363831;19;20007;-60
2022/05/06 03:04:36;;;;;;;0.00;0.00;;;;;;;16.08;60.81;101744.31;7361410;19;20006;-60
2022/05/06 03:07:06;;;;;;;0.00;0.00;;;;;;;16.08;60.68;101749.59;7361077;19;20105;-59
2022/05/06 03:09:32;;;;;;;0.03;0.03;;;;;;;15.91;60.84;101721.06;7364255;19;20013;-59
2022/05/06 03:11:58;;;;;;;0.00;0.00;;;;;;;16.01;60.90;101743.59;7363562;19;22421;-60
2022/05/06 03:14:24;;;;;;;0.00;0.00;;;;;;;16.00;60.87;101746.28;7362640;19;20793;-60
2022/05/06 03:16:50;;;;;;;0.00;0.00;;;;;;;15.95;61.42;101737.66;7362235;19;20006;-59
2022/05/06 03:19:15;;;;;;;0.00;0.00;;;;;;;15.92;60.88;101738.63;7356215;19;20018;-59
2022/05/06 03:21:41;;;;;;;0.00;0.00;;;;;;;15.81;61.27;101728.38;7360751;19;20006;-59
2022/05/06 03:24:07;;;;;;;0.00;0.00;;;;;;;15.87;61.45;101745.78;7361364;19;20031;-59
2022/05/06 03:26:33;;;;;;;0.00;0.00;;;;;;;15.83;61.27;101734.47;7362191;19;20128;-60
2022/05/06 03:28:58;;;;;;;0.00;0.00;;;;;;;15.79;61.70;101727.56;7365439;19;20019;-60
2022/05/06 03:31:26;;;;;;;0.00;0.00;;;;;;;15.76;61.59;101725.03;7362533;19;20006;-60
2022/05/06 03:33:54;;;;;;;0.00;0.00;;;;;;;15.72;61.69;101719.88;7365878;19;20070;-60
2022/05/06 03:36:20;;;;;;;0.00;0.00;;;;;;;15.67;61.83;101717.38;7364771;19;20014;-60
2022/05/06 03:38:45;;;;;;;0.10;0.10;;;;;;;15.63;62.15;101710.44;7366300;19;20808;-59
2022/05/06 03:41:11;;;;;;;0.00;0.00;;;;;;;15.61;62.10;101709.59;7364971;19;20807;-60
2022/05/06 03:43:36;;;;;;;0.00;0.00;;;;;;;15.57;62.17;101700.06;7363960;19;20038;-60
2022/05/06 03:46:01;;;;;;;0.10;0.10;;;;;;;15.56;62.39;101698.31;7362662;19;20365;-59
2022/05/06 03:48:27;;;;;;;0.00;0.00;;;;;;;15.51;62.05;101694.94;7364522;19;20090;-60
2022/05/06 03:53:37;;;;;;;0.00;0.00;;;;;;;15.48;62.36;101692.41;7362429;19;20031;-59
2022/05/06 03:56:04;;;;;;;0.10;0.10;;;;;;;15.49;62.16;101696.78;7365245;19;20007;-60
2022/05/06 03:58:30;;;;;;;0.00;0.00;;;;;;;15.47;62.22;101695.97;7363373;19;20018;-60
2022/05/06 04:00:55;;;;;;;0.00;0.00;;;;;;;15.46;62.39;101691.56;7365434;19;20014;-59
2022/05/06 04:03:21;;;;;;;0.00;0.00;;;;;;;15.44;62.41;101683.72;7363751;19;20032;-59
2022/05/06 04:05:46;;;;;;;0.00;0.00;;;;;;;15.42;62.69;101687.31;7365573;19;20017;-59
2022/05/06 04:08:12;;;;;;;0.00;0.00;;;;;;;15.36;62.49;101679.56;7362954;19;20053;-59
2022/05/06 04:10:37;;;;;;;0.00;0.00;;;;;;;15.39;62.49;101690.88;7362666;19;20070;-60
2022/05/06 04:13:02;;;;;;;0.00;0.00;;;;;;;15.26;62.75;101681.59;7364605;19;20082;-60
2022/05/06 04:15:28;;;;;;;0.10;0.10;;;;;;;15.35;62.69;101691.00;7364023;19;20010;-60
2022/05/06 04:17:54;;;;;;;0.10;0.10;;;;;;;15.32;62.76;101692.81;7364618;19;20018;-59
2022/05/06 04:25:49;;;;;;;0.08;0.08;;;;;;;15.25;62.65;101688.59;7364087;19;20644;-59
2022/05/06 04:28:15;;;;;;;0.00;0.00;;;;;;;15.24;62.93;101686.88;7360640;19;20022;-59
2022/05/06 04:30:40;;;;;;;0.00;0.00;;;;;;;15.21;63.31;101673.84;7364260;19;20406;-59
2022/05/06 04:33:06;;;;;;;0.08;0.08;;;;;;;15.19;62.91;101677.41;7363050;19;20018;-59
2022/05/06 04:35:31;;;;;;;0.00;0.00;;;;;;;15.14;62.96;101672.25;7363130;19;20113;-59
2022/05/06 04:37:57;;;;;;;0.03;0.03;;;;;;;15.15;63.59;101671.34;7365077;19;20014;-59
2022/05/06 04:40:22;;;;;;;0.08;0.08;;;;;;;15.12;63.39;101668.81;7362032;19;20775;-59
2022/05/06 04:42:47;;;;;;;0.00;0.00;;;;;;;15.11;63.49;101680.25;7365334;19;20023;-59
2022/05/06 04:45:13;;;;;;;0.10;0.10;;;;;;;14.98;63.46;101657.78;7362077;19;20025;-60
2022/05/06 04:47:38;;;;;;;0.10;0.10;;;;;;;15.07;63.72;101681.22;7364263;19;20086;-59
2022/05/06 04:50:04;;;;;;;0.00;0.00;;;;;;;15.05;63.31;101683.91;7362536;19;20881;-59
2022/05/06 04:52:31;;;;;;;0.00;0.00;;;;;;;15.02;63.46;101675.22;7363304;19;20010;-59
2022/05/06 04:54:57;;;;;;;0.00;0.00;;;;;;;15.01;63.76;101676.13;7362661;19;20010;-60
2022/05/06 04:57:22;;;;;;;0.00;0.00;;;;;;;14.99;63.47;101681.41;7363564;19;20822;-60
2022/05/06 04:59:48;;;;;;;0.10;0.10;;;;;;;14.98;63.69;101689.34;7362660;19;20013;-59
2022/05/06 05:02:15;;;;;;;0.10;0.10;;;;;;;14.95;64.02;101678.88;7357838;19;20668;-59
2022/05/06 05:04:42;;;;;;;0.00;0.00;;;;;;;14.95;64.12;101684.13;7359043;19;20344;-59
2022/05/06 05:07:07;;;;;;;0.00;0.00;;;;;;;14.93;64.10;101685.97;7361748;19;20048;-60
2022/05/06 05:09:33;;;;;;;0.00;0.00;;;;;;;14.82;63.90;101682.72;7363210;19;20049;-59
2022/05/06 05:11:58;;;;;;;0.00;0.00;;;;;;;14.86;63.77;101685.25;7362547;19;20040;-59
2022/05/06 05:14:24;;;;;;;0.05;0.05;;;;;;;14.87;63.73;101686.13;7362121;19;20015;-60
2022/05/06 05:16:50;;;;;;;0.00;0.00;;;;;;;14.86;63.88;101680.00;7362184;19;20016;-59
2022/05/06 05:19:16;;;;;;;0.00;0.00;;;;;;;14.85;64.55;101678.28;7359044;19;20010;-59
2022/05/06 05:21:42;;;;;;;0.00;0.00;;;;;;;14.86;64.02;101687.03;7361731;19;20172;-59
2022/05/06 05:24:07;;;;;;;0.00;0.00;;;;;;;14.85;64.39;101693.16;7360506;19;20110;-60
2022/05/06 05:26:33;;;;;;;0.00;0.00;;;;;;;14.84;64.41;101688.81;7360939;19;20013;-60
2022/05/06 05:28:59;;;;;;;0.10;0.10;;;;;;;14.86;64.08;101679.13;7362157;19;20922;-59
2022/05/06 05:31:24;;;;;;;0.00;0.00;;;;;;;14.85;64.19;101683.53;7362546;19;20558;-59
2022/05/06 05:33:52;;;;;;;0.10;0.10;;;;;;;14.86;64.47;101687.03;7358788;19;20078;-59
2022/05/06 05:36:18;;;;;;;0.00;0.00;;;;;;;14.80;63.76;101669.63;7360386;19;20010;-60
2022/05/06 05:38:43;;;;;;;0.00;0.00;;;;;;;14.87;64.42;101672.97;7361347;19;20011;-59
2022/05/06 05:41:09;;;;;;;0.00;0.00;;;;;;;14.86;63.44;101669.47;7361365;19;20018;-59
2022/05/06 05:49:02;;;;;;;0.00;0.00;;;;;;;14.75;64.27;101640.81;7361645;19;21328;-59
2022/05/06 05:51:27;;;;;;;0.00;0.00;;;;;;;14.90;64.02;101670.25;7362817;19;20006;-60
2022/05/06 05:53:53;;;;;;;0.00;0.00;;;;;;;14.90;64.34;101667.59;7360934;19;20822;-60
2022/05/06 05:56:18;;;;;;;0.00;0.00;;;;;;;14.79;64.25;101642.44;7362669;19;20002;-59
2022/05/06 05:58:45;;;;;;;0.00;0.00;;;;;;;14.91;64.48;101662.34;7361183;19;20011;-60
2022/05/06 06:01:10;;;;;;;0.00;0.00;;;;;;;14.91;64.11;101667.59;7362732;19;20020;-59
2022/05/06 06:03:35;;;;;;;0.00;0.00;;;;;;;14.88;64.24;101669.44;7361309;19;20454;-59
2022/05/06 06:06:01;;;;;;;0.10;0.10;;;;;;;14.95;64.04;101678.88;7361827;19;20084;-60
2022/05/06 06:08:26;;;;;;;0.10;0.10;;;;;;;14.96;64.01;101670.97;7362034;19;20018;-60
2022/05/06 06:10:53;;;;;;;0.10;0.10;;;;;;;14.97;64.33;101677.94;7359220;19;20010;-59
2022/05/06 06:13:18;;;;;;;0.00;0.00;;;;;;;14.95;63.48;101673.63;7360596;19;20090;-59
2022/05/06 06:15:44;;;;;;;0.00;0.00;;;;;;;15.00;64.32;101666.47;7361245;19;20070;-60
2022/05/06 06:18:09;;;;;;;0.10;0.10;;;;;;;15.01;64.43;101655.06;7364476;19;20006;-60
2022/05/06 06:20:37;;;;;;;0.03;0.03;;;;;;;14.99;64.05;101657.72;7366001;19;20477;-59
2022/05/06 06:23:02;;;;;;;;;;;;;;;15.11;62.16;101663.59;7364837;19;20006;-59
2022/05/06 06:25:28;;;;;;;0.00;0.00;;;;;;;15.10;63.91;101667.97;7365676;19;19938;-60
2022/05/06 06:27:53;;;;;;;0.00;0.00;;;;;;;15.12;63.69;101670.56;7360760;19;22485;-59
2022/05/06 06:30:19;;;;;;;0.05;0.05;;;;;;;15.13;63.75;101683.69;7357275;19;20027;-60
2022/05/06 06:32:44;;;;;;;0.00;0.00;;;;;;;14.99;63.43;101648.97;7361244;19;20453;-59
2022/05/06 06:35:10;;;;;;;0.10;0.10;;;;;;;15.15;63.74;101676.59;7354153;19;20478;-60
2022/05/06 06:37:38;;;;;;;0.10;0.10;;;;;;;15.16;63.90;101667.81;7358220;19;20007;-60
2022/05/06 06:40:04;;;;;;;0.00;0.00;;;;;;;15.20;63.58;101674.72;7364386;19;20030;-59
2022/05/06 06:42:30;;;;;;;0.00;0.00;;;;;;;15.22;63.51;101674.69;7360540;19;20014;-60
2022/05/06 06:44:58;;;;;;;0.00;0.00;;;;;;;15.26;63.69;101673.72;7359952;19;20627;-60
2022/05/06 06:47:23;;;;;;;0.10;0.10;;;;;;;15.27;63.53;101665.78;7363786;19;19998;-60
2022/05/06 06:49:49;;;;;;;0.00;0.00;;;;;;;15.30;63.95;101663.03;7361581;19;20038;-59
2022/05/06 06:52:15;;;;;;;0.10;0.10;;;;;;;15.34;64.10;101660.34;7360255;19;20031;-60
2022/05/06 06:54:40;;;;;;;0.05;0.05;;;;;;;15.39;63.42;101663.72;7364521;19;20062;-60
2022/05/06 06:57:06;;;;;;;0.10;0.10;;;;;;;15.43;63.74;101660.09;7365205;19;20022;-59
2022/05/06 06:59:31;;;;;;;0.10;0.10;;;;;;;15.46;63.84;101662.63;7359196;19;20007;-59
2022/05/06 07:01:57;;;;;;;0.10;0.10;;;;;;;15.43;63.75;101657.47;7354131;19;20021;-59
2022/05/06 07:04:22;;;;;;;0.00;0.00;;;;;;;15.53;63.87;101665.06;7352950;19;20014;-59
2022/05/06 07:12:15;;;;;;;0.10;0.10;;;;;;;15.66;65.75;101686.69;7362676;19;20082;-60
2022/05/06 07:14:41;;;;;;;0.00;0.00;;;;;;;15.66;66.34;101684.06;7363053;19;20090;-60
2022/05/06 07:17:06;;;;;;;0.10;0.10;;;;;;;15.66;65.65;101681.41;7362111;19;20026;-60
2022/05/06 07:19:35;;;;;;;0.00;0.00;;;;;;;15.64;66.34;101685.00;7362477;19;20015;-59
2022/05/06 07:22:00;;;;;;;0.10;0.10;;;;;;;15.61;66.03;101685.03;7361332;19;20732;-60
2022/05/06 07:24:26;;;;;;;0.10;0.10;;;;;;;15.46;65.92;101660.88;7363639;19;20010;-60
2022/05/06 07:26:52;;;;;;;0.00;0.00;;;;;;;15.58;65.71;101688.63;7359318;19;20106;-59
2022/05/06 07:29:19;;;;;;;0.00;0.00;;;;;;;15.57;65.99;101681.63;7358766;19;21433;-60
2022/05/06 07:31:45;;;;;;;0.00;0.00;;;;;;;15.58;65.75;101680.72;7363288;19;20010;-59
2022/05/06 07:34:11;;;;;;;0.00;0.00;;;;;;;15.60;65.45;101684.16;7364067;19;20011;-60
2022/05/06 07:36:41;;;;;;;0.00;0.00;;;;;;;15.61;65.68;101670.09;7360872;19;20032;-59
2022/05/06 07:39:08;;;;;;;0.10;0.10;;;;;;;15.64;65.36;101667.41;7361088;19;20015;-59
2022/05/06 07:41:33;;;;;;;0.00;0.00;;;;;;;15.69;64.98;101678.69;7359142;19;20029;-59
2022/05/06 07:43:59;;;;;;;0.10;0.10;;;;;;;15.73;65.50;101674.19;7360737;19;20002;-59
2022/05/06 07:46:25;;;;;;;0.10;0.10;;;;;;;15.76;64.99;101674.97;7361308;19;20042;-60
2022/05/06 07:48:50;;;;;;;0.10;0.10;;;;;;;15.82;64.44;101674.81;7362289;19;20023;-59
2022/05/06 07:51:16;;;;;;;0.00;0.00;;;;;;;15.87;64.92;101665.91;7363053;19;20002;-59
2022/05/06 07:53:41;;;;;;;0.10;0.10;;;;;;;15.92;64.89;101671.91;7356418;19;20026;-59
2022/05/06 07:56:07;;;;;;;0.00;0.00;;;;;;;15.95;64.72;101663.88;7358718;19;20778;-59
2022/05/06 07:58:33;;;;;;;0.03;0.03;;;;;;;16.04;64.76;101672.38;7360351;19;20011;-59
2022/05/06 08:00:58;;;;;;;0.00;0.00;;;;;;;16.13;64.21;101667.75;7352375;19;20101;-60
2022/05/06 08:06:07;;;;;;;0.00;0.00;;;;;;;16.26;64.51;101659.41;7341962;19;20351;-60
2022/05/06 08:08:33;;;;;;;0.03;0.03;;;;;;;16.34;63.97;101660.06;7358538;19;20010;-60
2022/05/06 08:10:58;;;;;;;0.03;0.03;;;;;;;16.40;63.79;101660.75;7361272;19;20034;-59
2022/05/06 08:13:24;;;;;;;0.08;0.08;;;;;;;16.45;63.71;101658.84;7356491;19;20010;-60
2022/05/06 08:15:51;;;;;;;0.10;0.10;;;;;;;16.48;63.47;101658.75;7360249;19;20713;-59
2022/05/06 08:18:16;;;;;;;0.00;0.00;;;;;;;16.51;63.60;101663.91;7364891;19;20018;-60
2022/05/06 08:20:42;;;;;;;0.00;0.00;;;;;;;16.52;62.82;101655.09;7364576;19;20461;-59
2022/05/06 08:23:08;;;;;;;0.00;0.00;;;;;;;16.60;62.91;101653.94;7362644;19;20094;-59
2022/05/06 08:25:34;;;;;;;0.00;0.00;;;;;;;16.68;63.14;101651.06;7363549;19;20018;-60
2022/05/06 08:27:59;;;;;;;0.00;0.00;;;;;;;16.72;62.79;101647.41;7365379;19;19999;-60
2022/05/06 08:30:25;;;;;;;0.00;0.00;;;;;;;16.72;62.63;101650.06;7363806;19;20007;-59
2022/05/06 08:32:51;;;;;;;0.10;0.10;;;;;;;16.84;62.47;101651.44;7365705;19;20002;-59
2022/05/06 08:35:17;;;;;;;0.00;0.00;;;;;;;16.89;62.83;101660.06;7360284;19;20040;-60
2022/05/06 08:37:44;;;;;;;0.10;0.10;;;;;;;16.89;62.35;101648.66;7362464;19;20416;-59
2022/05/06 08:40:20;;;;;;;0.10;0.10;;;;;;;16.93;62.30;101655.53;7361213;19;20118;-59
2022/05/06 08:42:47;;;;;;;0.00;0.00;;;;;;;17.01;62.30;101666.69;7362699;19;20023;-59
2022/05/06 08:50:56;;;;;;;0.00;0.00;;;;;;;17.21;61.93;101671.28;7362904;19;20013;-59
2022/05/06 08:53:24;;;;;;;0.03;0.03;;;;;;;17.21;62.30;101666.88;7364011;19;20014;-59
2022/05/06 08:55:51;;;;;;;0.00;0.00;;;;;;;17.24;62.31;101661.50;7363970;19;20010;-59
2022/05/06 08:58:17;;;;;;;0.00;0.00;;;;;;;17.25;62.28;101668.50;7365269;19;20006;-59
2022/05/06 09:00:42;;;;;;;0.05;0.05;;;;;;;17.26;62.61;101678.13;7363034;19;20016;-59
2022/05/06 09:03:08;;;;;;;0.00;0.00;;;;;;;17.27;63.38;101674.56;7364043;19;20070;-59
2022/05/06 09:05:47;;;;;;;0.00;0.00;;;;;;;17.25;62.45;101676.41;7361824;19;20006;-60
2022/05/06 09:08:13;;;;;;;0.00;0.00;;;;;;;17.12;65.90;101675.97;7363769;19;20009;-60
2022/05/06 09:10:38;;;;;;;0.10;0.10;;;;;;;17.03;65.27;101667.50;7364429;19;20002;-60
2022/05/06 09:13:04;;;;;;;0.00;0.00;;;;;;;16.92;66.50;101664.38;7361746;19;20726;-60
2022/05/06 09:18:19;;;;;;;0.00;0.00;;;;;;;16.65;67.14;101687.22;7364221;19;20013;-59
2022/05/06 09:20:45;;;;;;;0.10;0.10;;;;;;;16.51;67.73;101685.00;7359624;19;20006;-59
2022/05/06 09:23:24;;;;;;;0.00;0.00;;;;;;;16.41;66.42;101673.03;7362740;19;20485;-59
2022/05/06 09:25:54;;;;;;;0.00;0.00;;;;;;;16.28;69.93;101670.78;7363801;19;20123;-59
2022/05/06 09:28:25;;;;;;;0.00;0.00;;;;;;;16.21;69.39;101671.88;7361636;19;20010;-59
2022/05/06 09:30:59;;;;;;;0.00;0.00;;;;;;;16.18;66.93;101679.88;7363339;19;20011;-59
2022/05/06 09:33:31;;;;;;;0.10;0.10;;;;;;;16.11;69.08;101678.31;7361046;19;20014;-60
2022/05/06 09:35:57;;;;;;;0.05;0.05;;;;;;;16.07;68.42;101676.72;7361304;19;21031;-59
2022/05/06 09:38:25;;;;;;;0.08;0.08;;;;;;;16.04;69.11;101674.16;7362741;19;20014;-60
2022/05/06 09:40:50;;;;;;;;;;;;;;;16.03;65.31;101680.34;7363325;19;20025;-59
2022/05/06 09:43:17;;;;;;;0.00;0.00;;;;;;;15.94;70.01;101673.56;7363183;19;19914;-60
2022/05/06 09:45:44;;;;;;;0.00;0.00;;;;;;;15.89;70.79;101674.63;7359914;19;20018;-60
2022/05/06 09:48:11;;;;;;;0.00;0.00;;;;;;;15.86;72.30;101674.69;7361757;19;20101;-60
2022/05/06 09:50:47;;;;;;;0.00;0.00;;;;;;;15.85;71.31;101678.25;7361245;19;20010;-60
2022/05/06 09:53:17;;;;;;;0.10;0.10;;;;;;;15.79;71.64;101664.34;7361767;19;20046;-60
2022/05/06 09:55:45;;;;;;;0.00;0.00;;;;;;;15.75;72.46;101665.34;7361908;19;20435;-59
2022/05/06 09:58:48;;;;;;;0.00;0.00;;;;;;;15.75;69.15;101662.69;7361484;19;20727;-59
2022/05/06 10:04:36;;;;;;;0.10;0.10;;;;;;;15.65;72.25;101663.88;7158879;19;2004584;-59
2022/05/06 10:07:04;;;;;;;0.00;0.00;;;;;;;15.64;73.40;101659.50;7361559;19;20115;-60
2022/05/06 10:09:35;;;;;;;0.03;0.03;;;;;;;15.65;74.00;101666.50;7360767;19;20010;-59
2022/05/06 10:12:04;;;;;;;0.10;0.10;;;;;;;15.66;73.90;101665.63;7361183;19;20751;-60
2022/05/06 10:14:31;;;;;;;0.00;0.00;;;;;;;15.67;73.35;101669.97;7362016;19;20465;-59
2022/05/06 10:16:56;;;;;;;0.00;0.00;;;;;;;15.63;72.80;101665.69;7360572;19;20060;-60
2022/05/06 10:19:45;;;;;;;0.00;0.00;;;;;;;15.71;70.82;101671.63;7359878;19;20002;-59
2022/05/06 10:22:10;;;;;;;0.10;0.10;;;;;;;15.68;73.39;101676.97;7258870;19;2004466;-59
2022/05/06 10:24:49;;;;;;;0.00;0.00;;;;;;;15.71;71.83;101669.00;7360434;19;20081;-59
2022/05/06 10:27:23;;;;;;;0.10;0.10;;;;;;;15.73;73.47;101666.28;7361357;19;20025;-59
2022/05/06 10:32:56;;;;;;;0.00;0.00;;;;;;;15.79;71.89;101669.59;7257202;19;2004549;-60
2022/05/06 10:35:39;;;;;;;0.00;0.00;;;;;;;15.80;71.69;101666.06;7361554;19;20090;-59
2022/05/06 10:38:24;;;;;;;0.00;0.00;;;;;;;15.80;70.80;101662.56;7360797;19;20011;-59
2022/05/06 10:40:57;;;;;;;0.00;0.00;;;;;;;15.70;72.55;101661.09;7358594;19;20858;-59
2022/05/06 10:43:41;;;;;;;0.00;0.00;;;;;;;15.79;72.63;101674.88;7359001;19;20003;-58
2022/05/06 10:46:09;;;;;;;0.00;0.00;;;;;;;15.74;73.58;101674.16;7360972;19;20467;-59
2022/05/06 10:48:35;;;;;;;0.10;0.10;;;;;;;15.72;74.06;101675.13;7360855;19;20359;-58
2022/05/06 10:51:19;;;;;;;0.10;0.10;;;;;;;15.74;72.66;101671.50;7357553;19;20002;-59
2022/05/06 10:53:45;;;;;;;0.00;0.00;;;;;;;15.68;74.15;101676.97;7358836;19;20027;-58
2022/05/06 10:56:11;;;;;;;0.00;0.00;;;;;;;15.67;74.64;101675.25;7361287;19;20011;-58
2022/05/06 10:58:36;;;;;;;0.10;0.10;;;;;;;15.67;74.38;101674.38;7359425;19;20002;-59
2022/05/06 11:01:02;;;;;;;0.00;0.00;;;;;;;15.67;74.11;101664.72;7359241;19;20737;-59
2022/05/06 11:03:27;;;;;;;0.00;0.00;;;;;;;15.66;74.70;101670.88;7360358;19;20006;-59
2022/05/06 11:05:53;;;;;;;0.00;0.00;;;;;;;15.65;74.71;101658.59;7363540;19;20050;-59
2022/05/06 11:08:21;;;;;;;0.00;0.00;;;;;;;15.65;75.17;101666.50;7366524;19;20018;-59
2022/05/06 11:10:46;;;;;;;0.10;0.10;;;;;;;15.69;75.04;101676.03;7366421;19;20006;-59
2022/05/06 11:13:11;;;;;;;0.00;0.00;;;;;;;15.67;75.47;101663.84;7365698;19;20039;-59
2022/05/06 11:15:37;;;;;;;0.00;0.00;;;;;;;15.75;75.73;101667.97;7365865;19;20003;-59
2022/05/06 11:18:04;;;;;;;0.00;0.00;;;;;;;15.78;75.87;101660.00;7363645;19;20352;-59
2022/05/06 11:20:35;;;;;;;0.00;0.00;;;;;;;15.80;75.04;101660.78;7366029;19;20478;-59
2022/05/06 11:23:04;;;;;;;0.10;0.10;;;;;;;15.81;75.69;101656.38;7364136;19;20018;-58
2022/05/06 11:25:35;;;;;;;0.08;0.08;;;;;;;15.85;75.90;101662.44;7367064;19;20824;-59
2022/05/06 11:28:30;;;;;;;0.10;0.10;;;;;;;15.88;74.09;101652.69;7363525;19;20010;-59
2022/05/06 11:30:55;;;;;;;0.05;0.05;;;;;;;15.79;75.81;101658.22;7263926;19;2004634;-59
2022/05/06 11:33:24;;;;;;;0.00;0.00;;;;;;;15.83;75.53;101650.19;7365168;19;20081;-59
2022/05/06 11:35:51;;;;;;;0.08;0.08;;;;;;;15.81;76.16;101657.28;7366589;19;21585;-58
2022/05/06 11:38:37;;;;;;;0.00;0.00;;;;;;;15.86;74.95;101650.97;7367351;19;20021;-59
2022/05/06 11:41:10;;;;;;;0.05;0.05;;;;;;;15.86;74.95;101654.47;7364820;19;20049;-58
2022/05/06 11:43:37;;;;;;;0.00;0.00;;;;;;;15.82;75.57;101648.47;7363633;19;20010;-58
2022/05/06 11:48:47;;;;;;;0.00;0.00;;;;;;;15.80;76.19;101647.63;7364868;19;20475;-58
2022/05/06 11:51:22;;;;;;;0.10;0.10;;;;;;;15.83;76.31;101650.19;7365228;19;20148;-59
2022/05/06 11:53:49;;;;;;;0.05;0.05;;;;;;;15.82;75.89;101653.72;7363026;19;20015;-59
2022/05/06 11:56:20;;;;;;;0.03;0.03;;;;;;;15.83;76.65;101638.78;7364451;19;20563;-58
2022/05/06 11:58:46;;;;;;;0.00;0.00;;;;;;;15.85;76.32;101644.00;7365991;19;20545;-59
2022/05/06 12:01:11;;;;;;;0.10;0.10;;;;;;;15.81;76.95;101630.94;7362554;19;20009;-59
2022/05/06 12:03:38;;;;;;;0.00;0.00;;;;;;;15.86;76.44;101643.09;7358911;19;20774;-56
2022/05/06 12:06:07;;;;;;;0.00;0.00;;;;;;;15.89;77.13;101643.00;7360621;19;20042;-58
2022/05/06 12:08:34;;;;;;;0.00;0.00;;;;;;;15.81;76.47;101625.69;7360418;19;20006;-59
2022/05/06 12:11:01;;;;;;;;;;;;;;;15.97;74.47;101635.75;7360150;19;20006;-59